sensor_id;sensor_type;location;lat;lon;timestamp;P1;durP1;ratioP1;P2;durP2;ratioP2
30247;SDS011;17063;50.892;4.702;2024-03-06T00:00:12;6.10;;;4.10;;
30247;SDS011;17063;50.892;4.702;2024-03-06T00:02:39;5.17;;;4.10;;
30247;SDS011;17063;50.892;4.702;2024-03-06T00:05:06;4.57;;;3.90;;
30247;SDS011;17063;50.892;4.702;2024-03-06T00:07:34;6.07;;;4.47;;
30247;SDS011;17063;50.892;4.702;2024-03-06T00:10:01;7.83;;;4.20;;
30247;SDS011;17063;50.892;4.702;2024-03-06T00:12:31;8.40;;;4.07;;
30247;SDS011;17063;50.892;4.702;2024-03-06T00:14:58;6.43;;;4.17;;
30247;SDS011;17063;50.892;4.702;2024-03-06T00:17:26;5.00;;;4.03;;
30247;SDS011;17063;50.892;4.702;2024-03-06T00:19:53;6.77;;;4.07;;
30247;SDS011;17063;50.892;4.702;2024-03-06T00:22:20;4.70;;;3.80;;
30247;SDS011;17063;50.892;4.702;2024-03-06T00:24:49;8.93;;;4.53;;
30247;SDS011;17063;50.892;4.702;2024-03-06T00:27:17;7.50;;;4.33;;
30247;SDS011;17063;50.892;4.702;2024-03-06T00:29:43;6.80;;;4.10;;
30247;SDS011;17063;50.892;4.702;2024-03-06T00:32:11;5.60;;;4.20;;
30247;SDS011;17063;50.892;4.702;2024-03-06T00:34:38;5.30;;;3.90;;
30247;SDS011;17063;50.892;4.702;2024-03-06T00:37:05;5.20;;;3.80;;
30247;SDS011;17063;50.892;4.702;2024-03-06T00:39:32;5.23;;;3.90;;
30247;SDS011;17063;50.892;4.702;2024-03-06T00:41:59;7.43;;;3.97;;
30247;SDS011;17063;50.892;4.702;2024-03-06T00:44:25;8.83;;;3.70;;
30247;SDS011;17063;50.892;4.702;2024-03-06T00:46:52;6.40;;;4.20;;
30247;SDS011;17063;50.892;4.702;2024-03-06T00:49:19;6.27;;;4.00;;
30247;SDS011;17063;50.892;4.702;2024-03-06T00:51:46;7.97;;;4.10;;
30247;SDS011;17063;50.892;4.702;2024-03-06T00:54:15;7.17;;;3.90;;
30247;SDS011;17063;50.892;4.702;2024-03-06T00:56:43;5.70;;;3.63;;
30247;SDS011;17063;50.892;4.702;2024-03-06T00:59:11;6.50;;;3.80;;
30247;SDS011;17063;50.892;4.702;2024-03-06T01:01:39;6.37;;;4.20;;
30247;SDS011;17063;50.892;4.702;2024-03-06T01:04:08;7.00;;;4.67;;
30247;SDS011;17063;50.892;4.702;2024-03-06T01:06:35;5.90;;;4.27;;
30247;SDS011;17063;50.892;4.702;2024-03-06T01:09:02;7.87;;;4.07;;
30247;SDS011;17063;50.892;4.702;2024-03-06T01:11:29;5.03;;;4.00;;
30247;SDS011;17063;50.892;4.702;2024-03-06T01:13:56;6.30;;;4.20;;
30247;SDS011;17063;50.892;4.702;2024-03-06T01:16:23;6.03;;;4.30;;
30247;SDS011;17063;50.892;4.702;2024-03-06T01:18:50;7.57;;;4.20;;
30247;SDS011;17063;50.892;4.702;2024-03-06T01:21:16;9.57;;;4.57;;
30247;SDS011;17063;50.892;4.702;2024-03-06T01:23:43;7.70;;;4.40;;
30247;SDS011;17063;50.892;4.702;2024-03-06T01:26:10;8.07;;;4.33;;
30247;SDS011;17063;50.892;4.702;2024-03-06T01:28:38;7.87;;;4.13;;
30247;SDS011;17063;50.892;4.702;2024-03-06T01:31:06;5.73;;;3.90;;
30247;SDS011;17063;50.892;4.702;2024-03-06T01:33:33;7.00;;;4.23;;
30247;SDS011;17063;50.892;4.702;2024-03-06T01:36:00;7.23;;;4.43;;
30247;SDS011;17063;50.892;4.702;2024-03-06T01:38:27;7.30;;;4.47;;
30247;SDS011;17063;50.892;4.702;2024-03-06T01:40:54;7.30;;;4.53;;
30247;SDS011;17063;50.892;4.702;2024-03-06T01:43:23;7.77;;;4.07;;
30247;SDS011;17063;50.892;4.702;2024-03-06T01:45:51;10.03;;;4.97;;
30247;SDS011;17063;50.892;4.702;2024-03-06T01:48:23;8.33;;;4.20;;
30247;SDS011;17063;50.892;4.702;2024-03-06T01:50:53;6.47;;;4.47;;
30247;SDS011;17063;50.892;4.702;2024-03-06T01:53:22;7.80;;;4.57;;
30247;SDS011;17063;50.892;4.702;2024-03-06T01:55:51;7.43;;;4.53;;
30247;SDS011;17063;50.892;4.702;2024-03-06T01:58:18;7.70;;;4.57;;
30247;SDS011;17063;50.892;4.702;2024-03-06T02:00:48;9.13;;;5.53;;
30247;SDS011;17063;50.892;4.702;2024-03-06T02:03:15;6.53;;;4.53;;
30247;SDS011;17063;50.892;4.702;2024-03-06T02:05:43;7.67;;;4.67;;
30247;SDS011;17063;50.892;4.702;2024-03-06T02:08:10;6.50;;;4.63;;
30247;SDS011;17063;50.892;4.702;2024-03-06T02:10:37;6.67;;;4.67;;
30247;SDS011;17063;50.892;4.702;2024-03-06T02:13:05;8.63;;;4.30;;
30247;SDS011;17063;50.892;4.702;2024-03-06T02:15:31;9.40;;;4.50;;
30247;SDS011;17063;50.892;4.702;2024-03-06T02:17:58;5.37;;;3.70;;
30247;SDS011;17063;50.892;4.702;2024-03-06T02:20:29;7.17;;;5.00;;
30247;SDS011;17063;50.892;4.702;2024-03-06T02:22:57;5.60;;;4.40;;
30247;SDS011;17063;50.892;4.702;2024-03-06T02:25:24;9.80;;;4.57;;
30247;SDS011;17063;50.892;4.702;2024-03-06T02:27:51;8.07;;;4.70;;
30247;SDS011;17063;50.892;4.702;2024-03-06T02:30:21;5.93;;;4.53;;
30247;SDS011;17063;50.892;4.702;2024-03-06T02:32:48;7.77;;;4.70;;
30247;SDS011;17063;50.892;4.702;2024-03-06T02:35:15;7.87;;;4.77;;
30247;SDS011;17063;50.892;4.702;2024-03-06T02:37:42;10.07;;;4.60;;
30247;SDS011;17063;50.892;4.702;2024-03-06T02:40:10;8.53;;;4.70;;
30247;SDS011;17063;50.892;4.702;2024-03-06T02:42:38;8.23;;;4.87;;
30247;SDS011;17063;50.892;4.702;2024-03-06T02:45:06;7.33;;;4.53;;
30247;SDS011;17063;50.892;4.702;2024-03-06T02:47:34;10.07;;;4.70;;
30247;SDS011;17063;50.892;4.702;2024-03-06T02:50:01;7.53;;;4.33;;
30247;SDS011;17063;50.892;4.702;2024-03-06T02:52:28;6.97;;;4.73;;
30247;SDS011;17063;50.892;4.702;2024-03-06T02:54:55;4.70;;;4.23;;
30247;SDS011;17063;50.892;4.702;2024-03-06T02:57:22;8.00;;;4.70;;
30247;SDS011;17063;50.892;4.702;2024-03-06T02:59:49;6.07;;;4.47;;
30247;SDS011;17063;50.892;4.702;2024-03-06T03:02:15;10.23;;;4.60;;
30247;SDS011;17063;50.892;4.702;2024-03-06T03:04:43;7.37;;;5.30;;
30247;SDS011;17063;50.892;4.702;2024-03-06T03:07:10;6.87;;;4.80;;
30247;SDS011;17063;50.892;4.702;2024-03-06T03:09:37;8.73;;;5.10;;
30247;SDS011;17063;50.892;4.702;2024-03-06T03:12:05;6.53;;;4.53;;
30247;SDS011;17063;50.892;4.702;2024-03-06T03:14:32;7.77;;;4.93;;
30247;SDS011;17063;50.892;4.702;2024-03-06T03:17:02;6.77;;;4.70;;
30247;SDS011;17063;50.892;4.702;2024-03-06T03:19:30;6.27;;;4.50;;
30247;SDS011;17063;50.892;4.702;2024-03-06T03:21:57;7.37;;;4.63;;
30247;SDS011;17063;50.892;4.702;2024-03-06T03:24:24;8.30;;;4.50;;
30247;SDS011;17063;50.892;4.702;2024-03-06T03:26:54;9.77;;;4.50;;
30247;SDS011;17063;50.892;4.702;2024-03-06T03:29:20;6.73;;;4.10;;
30247;SDS011;17063;50.892;4.702;2024-03-06T03:31:47;6.87;;;5.03;;
30247;SDS011;17063;50.892;4.702;2024-03-06T03:34:15;6.10;;;4.43;;
30247;SDS011;17063;50.892;4.702;2024-03-06T03:36:42;5.33;;;3.83;;
30247;SDS011;17063;50.892;4.702;2024-03-06T03:39:10;5.93;;;4.40;;
30247;SDS011;17063;50.892;4.702;2024-03-06T03:41:43;7.70;;;4.27;;
30247;SDS011;17063;50.892;4.702;2024-03-06T03:44:16;6.83;;;4.47;;
30247;SDS011;17063;50.892;4.702;2024-03-06T03:46:43;11.53;;;4.73;;
30247;SDS011;17063;50.892;4.702;2024-03-06T03:49:10;7.73;;;4.30;;
30247;SDS011;17063;50.892;4.702;2024-03-06T03:51:38;9.33;;;4.50;;
30247;SDS011;17063;50.892;4.702;2024-03-06T03:54:05;6.73;;;4.20;;
30247;SDS011;17063;50.892;4.702;2024-03-06T03:56:32;5.93;;;4.50;;
30247;SDS011;17063;50.892;4.702;2024-03-06T03:59:00;6.73;;;4.40;;
30247;SDS011;17063;50.892;4.702;2024-03-06T04:01:27;6.47;;;4.30;;
30247;SDS011;17063;50.892;4.702;2024-03-06T04:03:54;7.43;;;4.93;;
30247;SDS011;17063;50.892;4.702;2024-03-06T04:06:21;8.30;;;4.40;;
30247;SDS011;17063;50.892;4.702;2024-03-06T04:08:48;6.00;;;4.70;;
30247;SDS011;17063;50.892;4.702;2024-03-06T04:11:15;7.80;;;4.50;;
30247;SDS011;17063;50.892;4.702;2024-03-06T04:13:43;6.47;;;4.70;;
30247;SDS011;17063;50.892;4.702;2024-03-06T04:16:10;6.87;;;4.30;;
30247;SDS011;17063;50.892;4.702;2024-03-06T04:18:36;8.60;;;5.17;;
30247;SDS011;17063;50.892;4.702;2024-03-06T04:21:06;7.73;;;5.00;;
30247;SDS011;17063;50.892;4.702;2024-03-06T04:23:34;6.57;;;4.30;;
30247;SDS011;17063;50.892;4.702;2024-03-06T04:26:01;7.77;;;4.63;;
30247;SDS011;17063;50.892;4.702;2024-03-06T04:28:28;9.63;;;4.70;;
30247;SDS011;17063;50.892;4.702;2024-03-06T04:30:56;6.73;;;4.37;;
30247;SDS011;17063;50.892;4.702;2024-03-06T04:33:23;5.37;;;4.13;;
30247;SDS011;17063;50.892;4.702;2024-03-06T04:35:49;6.03;;;4.40;;
30247;SDS011;17063;50.892;4.702;2024-03-06T04:38:16;7.20;;;4.43;;
30247;SDS011;17063;50.892;4.702;2024-03-06T04:40:43;6.43;;;4.20;;
30247;SDS011;17063;50.892;4.702;2024-03-06T04:43:11;7.67;;;4.60;;
30247;SDS011;17063;50.892;4.702;2024-03-06T04:45:38;7.77;;;5.00;;
30247;SDS011;17063;50.892;4.702;2024-03-06T04:48:05;6.03;;;4.40;;
30247;SDS011;17063;50.892;4.702;2024-03-06T04:50:32;9.57;;;5.17;;
30247;SDS011;17063;50.892;4.702;2024-03-06T04:52:59;8.33;;;4.87;;
30247;SDS011;17063;50.892;4.702;2024-03-06T04:55:26;11.30;;;5.43;;
30247;SDS011;17063;50.892;4.702;2024-03-06T04:57:53;9.20;;;4.93;;
30247;SDS011;17063;50.892;4.702;2024-03-06T05:00:20;8.83;;;5.00;;
30247;SDS011;17063;50.892;4.702;2024-03-06T05:02:48;8.13;;;5.00;;
30247;SDS011;17063;50.892;4.702;2024-03-06T05:05:35;8.60;;;4.93;;
30247;SDS011;17063;50.892;4.702;2024-03-06T05:08:20;8.80;;;5.23;;
30247;SDS011;17063;50.892;4.702;2024-03-06T05:11:04;9.10;;;5.27;;
30247;SDS011;17063;50.892;4.702;2024-03-06T05:13:50;9.73;;;4.97;;
30247;SDS011;17063;50.892;4.702;2024-03-06T05:16:34;5.97;;;4.57;;
30247;SDS011;17063;50.892;4.702;2024-03-06T05:19:18;9.80;;;4.77;;
30247;SDS011;17063;50.892;4.702;2024-03-06T05:22:04;8.03;;;5.13;;
30247;SDS011;17063;50.892;4.702;2024-03-06T05:24:49;8.53;;;4.97;;
30247;SDS011;17063;50.892;4.702;2024-03-06T05:27:33;9.53;;;5.07;;
30247;SDS011;17063;50.892;4.702;2024-03-06T05:30:17;7.17;;;5.20;;
30247;SDS011;17063;50.892;4.702;2024-03-06T05:33:02;10.47;;;5.87;;
30247;SDS011;17063;50.892;4.702;2024-03-06T05:35:46;7.97;;;4.53;;
30247;SDS011;17063;50.892;4.702;2024-03-06T05:38:30;11.60;;;4.47;;
30247;SDS011;17063;50.892;4.702;2024-03-06T05:41:14;7.10;;;4.80;;
30247;SDS011;17063;50.892;4.702;2024-03-06T05:44:02;8.10;;;5.30;;
30247;SDS011;17063;50.892;4.702;2024-03-06T05:46:48;11.47;;;5.50;;
30247;SDS011;17063;50.892;4.702;2024-03-06T05:49:32;8.47;;;5.13;;
30247;SDS011;17063;50.892;4.702;2024-03-06T05:52:16;9.57;;;5.37;;
30247;SDS011;17063;50.892;4.702;2024-03-06T05:55:00;9.87;;;4.67;;
30247;SDS011;17063;50.892;4.702;2024-03-06T05:57:44;9.17;;;4.93;;
30247;SDS011;17063;50.892;4.702;2024-03-06T06:00:29;7.80;;;5.30;;
30247;SDS011;17063;50.892;4.702;2024-03-06T06:02:56;8.87;;;5.40;;
30247;SDS011;17063;50.892;4.702;2024-03-06T06:05:23;16.07;;;6.83;;
30247;SDS011;17063;50.892;4.702;2024-03-06T06:07:50;12.53;;;6.47;;
30247;SDS011;17063;50.892;4.702;2024-03-06T06:10:18;8.63;;;5.80;;
30247;SDS011;17063;50.892;4.702;2024-03-06T06:12:48;13.73;;;5.83;;
30247;SDS011;17063;50.892;4.702;2024-03-06T06:15:16;9.43;;;6.00;;
30247;SDS011;17063;50.892;4.702;2024-03-06T06:17:43;8.33;;;5.73;;
30247;SDS011;17063;50.892;4.702;2024-03-06T06:20:11;10.00;;;6.27;;
30247;SDS011;17063;50.892;4.702;2024-03-06T06:22:43;11.90;;;5.10;;
30247;SDS011;17063;50.892;4.702;2024-03-06T06:25:10;8.63;;;5.27;;
30247;SDS011;17063;50.892;4.702;2024-03-06T06:27:38;8.50;;;5.13;;
30247;SDS011;17063;50.892;4.702;2024-03-06T06:30:05;6.87;;;5.30;;
30247;SDS011;17063;50.892;4.702;2024-03-06T06:32:40;10.47;;;5.53;;
30247;SDS011;17063;50.892;4.702;2024-03-06T06:35:09;12.07;;;5.90;;
30247;SDS011;17063;50.892;4.702;2024-03-06T06:37:38;13.83;;;5.70;;
30247;SDS011;17063;50.892;4.702;2024-03-06T06:40:06;7.93;;;5.57;;
30247;SDS011;17063;50.892;4.702;2024-03-06T06:42:34;9.30;;;5.80;;
30247;SDS011;17063;50.892;4.702;2024-03-06T06:45:01;12.07;;;5.57;;
30247;SDS011;17063;50.892;4.702;2024-03-06T06:47:33;10.40;;;5.63;;
30247;SDS011;17063;50.892;4.702;2024-03-06T06:50:01;9.83;;;5.97;;
30247;SDS011;17063;50.892;4.702;2024-03-06T06:52:32;9.40;;;5.50;;
30247;SDS011;17063;50.892;4.702;2024-03-06T06:55:01;8.57;;;5.80;;
30247;SDS011;17063;50.892;4.702;2024-03-06T06:57:29;9.83;;;5.90;;
30247;SDS011;17063;50.892;4.702;2024-03-06T06:59:56;7.47;;;5.17;;
30247;SDS011;17063;50.892;4.702;2024-03-06T07:02:23;11.03;;;5.13;;
30247;SDS011;17063;50.892;4.702;2024-03-06T07:04:50;12.23;;;5.63;;
30247;SDS011;17063;50.892;4.702;2024-03-06T07:07:18;14.80;;;5.83;;
30247;SDS011;17063;50.892;4.702;2024-03-06T07:09:44;10.40;;;5.50;;
30247;SDS011;17063;50.892;4.702;2024-03-06T07:12:11;11.73;;;5.73;;
30247;SDS011;17063;50.892;4.702;2024-03-06T07:14:38;12.27;;;6.00;;
30247;SDS011;17063;50.892;4.702;2024-03-06T07:17:05;8.43;;;5.53;;
30247;SDS011;17063;50.892;4.702;2024-03-06T07:19:32;13.83;;;5.33;;
30247;SDS011;17063;50.892;4.702;2024-03-06T07:21:59;8.87;;;5.10;;
30247;SDS011;17063;50.892;4.702;2024-03-06T07:24:26;13.30;;;5.73;;
30247;SDS011;17063;50.892;4.702;2024-03-06T07:26:53;11.20;;;5.50;;
30247;SDS011;17063;50.892;4.702;2024-03-06T07:29:19;9.83;;;5.40;;
30247;SDS011;17063;50.892;4.702;2024-03-06T07:31:46;10.33;;;5.07;;
30247;SDS011;17063;50.892;4.702;2024-03-06T07:34:14;10.33;;;5.33;;
30247;SDS011;17063;50.892;4.702;2024-03-06T07:36:44;9.77;;;5.73;;
30247;SDS011;17063;50.892;4.702;2024-03-06T07:39:12;9.50;;;5.57;;
30247;SDS011;17063;50.892;4.702;2024-03-06T07:41:42;10.67;;;5.37;;
30247;SDS011;17063;50.892;4.702;2024-03-06T07:44:09;11.20;;;5.70;;
30247;SDS011;17063;50.892;4.702;2024-03-06T07:46:36;13.00;;;4.83;;
30247;SDS011;17063;50.892;4.702;2024-03-06T07:49:02;8.13;;;4.63;;
30247;SDS011;17063;50.892;4.702;2024-03-06T07:51:30;8.77;;;5.23;;
30247;SDS011;17063;50.892;4.702;2024-03-06T07:53:57;7.63;;;4.23;;
30247;SDS011;17063;50.892;4.702;2024-03-06T07:56:27;6.57;;;4.63;;
30247;SDS011;17063;50.892;4.702;2024-03-06T07:58:55;9.43;;;4.43;;
30247;SDS011;17063;50.892;4.702;2024-03-06T08:01:22;5.43;;;4.20;;
30247;SDS011;17063;50.892;4.702;2024-03-06T08:03:49;7.80;;;4.03;;
30247;SDS011;17063;50.892;4.702;2024-03-06T08:06:16;8.13;;;3.97;;
30247;SDS011;17063;50.892;4.702;2024-03-06T08:08:43;7.63;;;4.07;;
30247;SDS011;17063;50.892;4.702;2024-03-06T08:11:14;10.33;;;3.57;;
30247;SDS011;17063;50.892;4.702;2024-03-06T08:13:41;4.63;;;3.47;;
30247;SDS011;17063;50.892;4.702;2024-03-06T08:16:08;6.33;;;3.13;;
30247;SDS011;17063;50.892;4.702;2024-03-06T08:18:35;7.00;;;3.57;;
30247;SDS011;17063;50.892;4.702;2024-03-06T08:21:03;7.13;;;2.93;;
30247;SDS011;17063;50.892;4.702;2024-03-06T08:23:31;6.33;;;3.33;;
30247;SDS011;17063;50.892;4.702;2024-03-06T08:26:00;5.03;;;3.63;;
30247;SDS011;17063;50.892;4.702;2024-03-06T08:28:27;6.37;;;3.40;;
30247;SDS011;17063;50.892;4.702;2024-03-06T08:30:54;5.60;;;3.30;;
30247;SDS011;17063;50.892;4.702;2024-03-06T08:33:21;5.90;;;3.70;;
30247;SDS011;17063;50.892;4.702;2024-03-06T08:35:49;7.40;;;4.00;;
30247;SDS011;17063;50.892;4.702;2024-03-06T08:38:16;6.63;;;4.10;;
30247;SDS011;17063;50.892;4.702;2024-03-06T08:40:46;9.73;;;4.50;;
30247;SDS011;17063;50.892;4.702;2024-03-06T08:43:13;7.33;;;4.07;;
30247;SDS011;17063;50.892;4.702;2024-03-06T08:45:42;7.53;;;3.97;;
30247;SDS011;17063;50.892;4.702;2024-03-06T08:48:10;8.73;;;3.63;;
30247;SDS011;17063;50.892;4.702;2024-03-06T08:50:38;8.83;;;3.90;;
30247;SDS011;17063;50.892;4.702;2024-03-06T08:53:05;6.60;;;3.67;;
30247;SDS011;17063;50.892;4.702;2024-03-06T08:55:33;8.80;;;3.67;;
30247;SDS011;17063;50.892;4.702;2024-03-06T08:58:00;8.27;;;4.40;;
30247;SDS011;17063;50.892;4.702;2024-03-06T09:00:28;11.10;;;3.87;;
30247;SDS011;17063;50.892;4.702;2024-03-06T09:02:55;7.20;;;3.80;;
30247;SDS011;17063;50.892;4.702;2024-03-06T09:05:22;6.07;;;3.50;;
30247;SDS011;17063;50.892;4.702;2024-03-06T09:07:49;7.33;;;3.80;;
30247;SDS011;17063;50.892;4.702;2024-03-06T09:10:16;7.57;;;3.33;;
30247;SDS011;17063;50.892;4.702;2024-03-06T09:12:45;5.83;;;3.33;;
30247;SDS011;17063;50.892;4.702;2024-03-06T09:15:13;5.90;;;3.30;;
30247;SDS011;17063;50.892;4.702;2024-03-06T09:17:41;6.37;;;3.70;;
30247;SDS011;17063;50.892;4.702;2024-03-06T09:20:09;7.13;;;3.53;;
30247;SDS011;17063;50.892;4.702;2024-03-06T09:22:38;5.73;;;3.20;;
30247;SDS011;17063;50.892;4.702;2024-03-06T09:25:06;5.47;;;3.17;;
30247;SDS011;17063;50.892;4.702;2024-03-06T09:27:34;4.97;;;2.97;;
30247;SDS011;17063;50.892;4.702;2024-03-06T09:30:01;6.90;;;2.50;;
30247;SDS011;17063;50.892;4.702;2024-03-06T09:32:29;2.90;;;2.60;;
30247;SDS011;17063;50.892;4.702;2024-03-06T09:34:58;6.57;;;2.93;;
30247;SDS011;17063;50.892;4.702;2024-03-06T09:37:25;7.03;;;3.00;;
30247;SDS011;17063;50.892;4.702;2024-03-06T09:39:55;5.13;;;2.70;;
30247;SDS011;17063;50.892;4.702;2024-03-06T09:42:24;3.60;;;2.30;;
30247;SDS011;17063;50.892;4.702;2024-03-06T09:44:52;5.10;;;2.80;;
30247;SDS011;17063;50.892;4.702;2024-03-06T09:47:20;3.57;;;2.23;;
30247;SDS011;17063;50.892;4.702;2024-03-06T09:49:53;3.27;;;2.47;;
30247;SDS011;17063;50.892;4.702;2024-03-06T09:52:21;4.17;;;2.20;;
30247;SDS011;17063;50.892;4.702;2024-03-06T09:54:58;6.93;;;2.67;;
30247;SDS011;17063;50.892;4.702;2024-03-06T09:57:40;5.20;;;2.10;;
30247;SDS011;17063;50.892;4.702;2024-03-06T10:00:07;6.17;;;2.43;;
30247;SDS011;17063;50.892;4.702;2024-03-06T10:05:05;3.00;;;2.20;;
30247;SDS011;17063;50.892;4.702;2024-03-06T10:07:32;5.03;;;2.40;;
30247;SDS011;17063;50.892;4.702;2024-03-06T10:09:59;8.43;;;2.10;;
30247;SDS011;17063;50.892;4.702;2024-03-06T10:12:27;5.20;;;2.67;;
30247;SDS011;17063;50.892;4.702;2024-03-06T10:14:56;3.40;;;2.00;;
30247;SDS011;17063;50.892;4.702;2024-03-06T10:17:24;7.43;;;2.40;;
30247;SDS011;17063;50.892;4.702;2024-03-06T10:19:54;6.17;;;2.10;;
30247;SDS011;17063;50.892;4.702;2024-03-06T10:22:22;5.83;;;2.47;;
30247;SDS011;17063;50.892;4.702;2024-03-06T10:24:54;5.47;;;2.40;;
30247;SDS011;17063;50.892;4.702;2024-03-06T10:27:23;4.67;;;2.17;;
30247;SDS011;17063;50.892;4.702;2024-03-06T10:30:02;4.10;;;1.73;;
30247;SDS011;17063;50.892;4.702;2024-03-06T10:32:32;2.50;;;1.60;;
30247;SDS011;17063;50.892;4.702;2024-03-06T10:35:00;1.40;;;1.30;;
30247;SDS011;17063;50.892;4.702;2024-03-06T10:37:29;3.57;;;1.90;;
30247;SDS011;17063;50.892;4.702;2024-03-06T10:39:55;1.97;;;1.70;;
30247;SDS011;17063;50.892;4.702;2024-03-06T10:42:26;3.50;;;1.80;;
30247;SDS011;17063;50.892;4.702;2024-03-06T10:44:55;4.03;;;2.33;;
30247;SDS011;17063;50.892;4.702;2024-03-06T10:47:26;5.47;;;2.10;;
30247;SDS011;17063;50.892;4.702;2024-03-06T10:49:55;3.90;;;1.87;;
30247;SDS011;17063;50.892;4.702;2024-03-06T10:52:22;2.83;;;1.63;;
30247;SDS011;17063;50.892;4.702;2024-03-06T10:54:49;5.40;;;2.07;;
30247;SDS011;17063;50.892;4.702;2024-03-06T10:57:16;2.73;;;1.47;;
30247;SDS011;17063;50.892;4.702;2024-03-06T10:59:44;2.53;;;1.40;;
30247;SDS011;17063;50.892;4.702;2024-03-06T11:02:12;2.83;;;1.73;;
30247;SDS011;17063;50.892;4.702;2024-03-06T11:04:40;2.37;;;1.60;;
30247;SDS011;17063;50.892;4.702;2024-03-06T11:07:07;4.23;;;1.93;;
30247;SDS011;17063;50.892;4.702;2024-03-06T11:09:39;2.40;;;1.40;;
30247;SDS011;17063;50.892;4.702;2024-03-06T11:12:07;2.10;;;1.80;;
30247;SDS011;17063;50.892;4.702;2024-03-06T11:14:38;2.73;;;1.80;;
30247;SDS011;17063;50.892;4.702;2024-03-06T11:17:12;4.77;;;1.83;;
30247;SDS011;17063;50.892;4.702;2024-03-06T11:30:59;4.77;;;1.67;;
30247;SDS011;17063;50.892;4.702;2024-03-06T11:33:38;4.77;;;2.10;;
30247;SDS011;17063;50.892;4.702;2024-03-06T11:38:53;4.13;;;1.60;;
30247;SDS011;17063;50.892;4.702;2024-03-06T11:41:27;5.27;;;2.63;;
30247;SDS011;17063;50.892;4.702;2024-03-06T11:44:01;4.47;;;2.10;;
30247;SDS011;17063;50.892;4.702;2024-03-06T11:49:22;3.63;;;1.70;;
30247;SDS011;17063;50.892;4.702;2024-03-06T11:51:53;5.67;;;1.73;;
30247;SDS011;17063;50.892;4.702;2024-03-06T11:54:24;5.37;;;2.03;;
30247;SDS011;17063;50.892;4.702;2024-03-06T11:56:53;4.00;;;1.50;;
30247;SDS011;17063;50.892;4.702;2024-03-06T11:59:22;3.80;;;1.93;;
30247;SDS011;17063;50.892;4.702;2024-03-06T12:01:54;4.90;;;1.70;;
30247;SDS011;17063;50.892;4.702;2024-03-06T12:04:22;4.03;;;1.83;;
30247;SDS011;17063;50.892;4.702;2024-03-06T12:06:50;4.10;;;1.97;;
30247;SDS011;17063;50.892;4.702;2024-03-06T12:09:17;3.60;;;1.70;;
30247;SDS011;17063;50.892;4.702;2024-03-06T12:11:44;7.40;;;1.70;;
30247;SDS011;17063;50.892;4.702;2024-03-06T12:14:19;3.87;;;2.17;;
30247;SDS011;17063;50.892;4.702;2024-03-06T12:16:59;3.73;;;1.80;;
30247;SDS011;17063;50.892;4.702;2024-03-06T12:19:34;5.63;;;2.07;;
30247;SDS011;17063;50.892;4.702;2024-03-06T12:22:05;4.43;;;1.90;;
30247;SDS011;17063;50.892;4.702;2024-03-06T12:24:32;7.37;;;2.00;;
30247;SDS011;17063;50.892;4.702;2024-03-06T12:27:00;3.70;;;1.87;;
30247;SDS011;17063;50.892;4.702;2024-03-06T12:29:28;3.27;;;1.50;;
30247;SDS011;17063;50.892;4.702;2024-03-06T12:31:58;5.53;;;2.00;;
30247;SDS011;17063;50.892;4.702;2024-03-06T12:34:25;4.90;;;1.73;;
30247;SDS011;17063;50.892;4.702;2024-03-06T12:36:52;5.40;;;2.03;;
30247;SDS011;17063;50.892;4.702;2024-03-06T12:39:19;5.70;;;1.80;;
30247;SDS011;17063;50.892;4.702;2024-03-06T12:41:50;3.13;;;1.67;;
30247;SDS011;17063;50.892;4.702;2024-03-06T12:44:21;2.47;;;1.50;;
30247;SDS011;17063;50.892;4.702;2024-03-06T12:46:48;5.87;;;1.67;;
30247;SDS011;17063;50.892;4.702;2024-03-06T12:49:16;3.90;;;1.50;;
30247;SDS011;17063;50.892;4.702;2024-03-06T12:51:43;3.17;;;1.70;;
30247;SDS011;17063;50.892;4.702;2024-03-06T12:54:10;2.90;;;1.50;;
30247;SDS011;17063;50.892;4.702;2024-03-06T12:56:37;3.53;;;1.63;;
30247;SDS011;17063;50.892;4.702;2024-03-06T12:59:05;5.17;;;1.87;;
30247;SDS011;17063;50.892;4.702;2024-03-06T13:01:32;4.90;;;2.10;;
30247;SDS011;17063;50.892;4.702;2024-03-06T13:04:00;4.47;;;1.50;;
30247;SDS011;17063;50.892;4.702;2024-03-06T13:06:33;3.43;;;1.50;;
30247;SDS011;17063;50.892;4.702;2024-03-06T13:08:59;3.70;;;1.60;;
30247;SDS011;17063;50.892;4.702;2024-03-06T13:11:26;3.73;;;1.40;;
30247;SDS011;17063;50.892;4.702;2024-03-06T13:13:53;4.80;;;1.57;;
30247;SDS011;17063;50.892;4.702;2024-03-06T13:16:20;2.73;;;1.60;;
30247;SDS011;17063;50.892;4.702;2024-03-06T13:18:48;3.53;;;1.40;;
30247;SDS011;17063;50.892;4.702;2024-03-06T13:21:16;2.73;;;1.33;;
30247;SDS011;17063;50.892;4.702;2024-03-06T13:23:43;3.37;;;2.00;;
30247;SDS011;17063;50.892;4.702;2024-03-06T13:26:10;4.53;;;1.50;;
30247;SDS011;17063;50.892;4.702;2024-03-06T13:28:36;4.13;;;1.70;;
30247;SDS011;17063;50.892;4.702;2024-03-06T13:31:03;4.10;;;1.60;;
30247;SDS011;17063;50.892;4.702;2024-03-06T13:33:33;3.47;;;1.57;;
30247;SDS011;17063;50.892;4.702;2024-03-06T13:36:00;3.00;;;1.73;;
30247;SDS011;17063;50.892;4.702;2024-03-06T13:38:31;3.30;;;1.50;;
30247;SDS011;17063;50.892;4.702;2024-03-06T13:40:57;3.53;;;1.60;;
30247;SDS011;17063;50.892;4.702;2024-03-06T13:43:25;2.43;;;1.50;;
30247;SDS011;17063;50.892;4.702;2024-03-06T13:45:52;3.00;;;1.57;;
30247;SDS011;17063;50.892;4.702;2024-03-06T13:48:18;3.27;;;1.70;;
30247;SDS011;17063;50.892;4.702;2024-03-06T13:50:46;2.73;;;1.40;;
30247;SDS011;17063;50.892;4.702;2024-03-06T13:53:13;3.80;;;1.67;;
30247;SDS011;17063;50.892;4.702;2024-03-06T13:55:41;5.40;;;2.30;;
30247;SDS011;17063;50.892;4.702;2024-03-06T13:58:08;4.73;;;2.30;;
30247;SDS011;17063;50.892;4.702;2024-03-06T14:00:35;2.53;;;1.90;;
30247;SDS011;17063;50.892;4.702;2024-03-06T14:03:02;4.90;;;1.60;;
30247;SDS011;17063;50.892;4.702;2024-03-06T14:05:29;4.47;;;1.57;;
30247;SDS011;17063;50.892;4.702;2024-03-06T14:07:56;2.53;;;1.70;;
30247;SDS011;17063;50.892;4.702;2024-03-06T14:10:23;4.77;;;1.70;;
30247;SDS011;17063;50.892;4.702;2024-03-06T14:12:51;2.90;;;1.90;;
30247;SDS011;17063;50.892;4.702;2024-03-06T14:15:19;4.40;;;1.50;;
30247;SDS011;17063;50.892;4.702;2024-03-06T14:17:46;3.53;;;1.57;;
30247;SDS011;17063;50.892;4.702;2024-03-06T14:20:13;5.33;;;1.50;;
30247;SDS011;17063;50.892;4.702;2024-03-06T14:22:42;3.27;;;1.67;;
30247;SDS011;17063;50.892;4.702;2024-03-06T14:25:09;4.23;;;1.57;;
30247;SDS011;17063;50.892;4.702;2024-03-06T14:27:37;3.43;;;1.60;;
30247;SDS011;17063;50.892;4.702;2024-03-06T14:30:04;3.23;;;1.43;;
30247;SDS011;17063;50.892;4.702;2024-03-06T14:32:37;4.63;;;1.67;;
30247;SDS011;17063;50.892;4.702;2024-03-06T14:35:04;2.50;;;1.27;;
30247;SDS011;17063;50.892;4.702;2024-03-06T14:37:31;2.07;;;1.30;;
30247;SDS011;17063;50.892;4.702;2024-03-06T14:39:58;3.60;;;1.60;;
30247;SDS011;17063;50.892;4.702;2024-03-06T14:42:31;4.97;;;1.77;;
30247;SDS011;17063;50.892;4.702;2024-03-06T14:44:58;1.43;;;1.33;;
30247;SDS011;17063;50.892;4.702;2024-03-06T14:47:25;3.40;;;1.30;;
30247;SDS011;17063;50.892;4.702;2024-03-06T14:49:53;2.63;;;1.40;;
30247;SDS011;17063;50.892;4.702;2024-03-06T14:52:20;2.93;;;1.50;;
30247;SDS011;17063;50.892;4.702;2024-03-06T14:54:47;1.90;;;1.10;;
30247;SDS011;17063;50.892;4.702;2024-03-06T14:57:14;2.17;;;0.90;;
30247;SDS011;17063;50.892;4.702;2024-03-06T14:59:41;4.10;;;1.00;;
30247;SDS011;17063;50.892;4.702;2024-03-06T15:02:07;1.83;;;1.00;;
30247;SDS011;17063;50.892;4.702;2024-03-06T15:04:34;1.20;;;0.97;;
30247;SDS011;17063;50.892;4.702;2024-03-06T15:07:04;1.00;;;0.90;;
30247;SDS011;17063;50.892;4.702;2024-03-06T15:09:31;5.43;;;1.23;;
30247;SDS011;17063;50.892;4.702;2024-03-06T15:11:58;1.73;;;0.80;;
30247;SDS011;17063;50.892;4.702;2024-03-06T15:14:27;1.93;;;0.80;;